Time;durP1;ratioP1;P1;durP2;ratioP2;P2;SDS_P1;SDS_P2;PMS_P1;PMS_P2;Temp;Humidity;BMP_temperature;BMP_pressure;BME280_temperature;BME280_humidity;BME280_pressure;Samples;Min_cycle;Max_cycle;Signal;HPM_P1;HPM_P2
2023/07/24 00:01:28;;;;;;;3.05;2.75;;;21.60;65.00;;;;;;942313;149;27340;-71
2023/07/24 00:03:56;;;;;;;2.60;2.33;;;21.50;64.20;;;;;;942463;149;27488;-71
2023/07/24 00:06:21;;;;;;;4.62;2.70;;;21.50;64.30;;;;;;942575;149;27353;-71
2023/07/24 00:08:48;;;;;;;3.45;2.77;;;21.50;64.30;;;;;;941560;148;27357;-71
2023/07/24 00:11:15;;;;;;;2.60;2.40;;;21.50;64.30;;;;;;941203;148;27468;-71
2023/07/24 00:13:41;;;;;;;2.52;2.30;;;21.50;64.40;;;;;;941740;149;27380;-71
2023/07/24 00:16:08;;;;;;;3.10;2.80;;;21.50;64.40;;;;;;941874;149;27313;-71
2023/07/24 00:18:34;;;;;;;3.15;2.52;;;21.50;64.50;;;;;;941867;149;27361;-72
2023/07/24 00:21:01;;;;;;;2.65;2.45;;;21.50;64.50;;;;;;941547;149;27450;-71
2023/07/24 00:23:28;;;;;;;2.87;2.58;;;21.60;64.60;;;;;;941759;149;27364;-71
2023/07/24 00:25:54;;;;;;;2.90;2.60;;;21.60;64.60;;;;;;942176;149;27661;-71
2023/07/24 00:28:21;;;;;;;2.80;2.42;;;21.60;64.60;;;;;;941721;149;27360;-71
2023/07/24 00:30:47;;;;;;;3.55;2.60;;;21.60;64.60;;;;;;942444;149;27793;-71
2023/07/24 00:33:14;;;;;;;2.87;2.67;;;21.60;64.80;;;;;;949992;147;27335;-71
2023/07/24 00:35:40;;;;;;;2.58;2.37;;;21.60;64.70;;;;;;950326;147;27353;-71
2023/07/24 00:38:07;;;;;;;2.80;2.60;;;21.60;64.80;;;;;;930163;149;27440;-71
2023/07/24 00:40:34;;;;;;;4.62;2.83;;;21.60;64.90;;;;;;950001;147;27332;-72
2023/07/24 00:43:00;;;;;;;5.08;2.98;;;21.60;65.00;;;;;;933506;149;27393;-71
2023/07/24 00:45:27;;;;;;;3.75;2.70;;;21.60;65.00;;;;;;950503;147;27438;-71
2023/07/24 00:47:53;;;;;;;2.95;2.75;;;21.60;65.10;;;;;;949751;147;27301;-71
2023/07/24 00:50:20;;;;;;;3.15;2.85;;;21.60;65.20;;;;;;950457;147;27440;-71
2023/07/24 00:52:47;;;;;;;3.10;2.87;;;21.60;65.30;;;;;;949100;146;27326;-71
2023/07/24 00:55:13;;;;;;;2.75;2.47;;;21.60;65.40;;;;;;948791;146;27314;-72
2023/07/24 00:57:40;;;;;;;2.90;2.60;;;21.60;65.40;;;;;;932385;150;27370;-71
2023/07/24 01:00:07;;;;;;;3.70;2.62;;;21.60;65.60;;;;;;949505;147;27393;-71
2023/07/24 01:02:33;;;;;;;4.22;3.02;;;21.60;65.60;;;;;;949855;147;27448;-71
2023/07/24 01:05:00;;;;;;;3.22;2.92;;;21.60;65.60;;;;;;924624;149;27473;-70
2023/07/24 01:07:26;;;;;;;3.00;2.80;;;21.60;65.60;;;;;;949901;147;27329;-71
2023/07/24 01:09:53;;;;;;;3.20;2.92;;;21.70;65.70;;;;;;949272;147;27317;-71
2023/07/24 01:12:34;;;;;;;2.80;2.60;;;21.70;65.70;;;;;;950150;147;27356;-71
2023/07/24 01:15:07;;;;;;;2.83;2.62;;;21.70;65.70;;;;;;949122;146;27679;-71
2023/07/24 01:17:34;;;;;;;2.60;2.40;;;21.70;65.70;;;;;;932828;150;27351;-71
2023/07/24 01:20:00;;;;;;;2.80;2.60;;;21.70;65.70;;;;;;948664;147;27401;-71
2023/07/24 01:22:29;;;;;;;2.42;2.25;;;21.70;65.70;;;;;;949983;147;27421;-72
2023/07/24 01:25:07;;;;;;;3.02;2.65;;;21.70;65.70;;;;;;926627;150;27354;-71
2023/07/24 01:27:34;;;;;;;3.02;2.77;;;21.70;65.60;;;;;;940959;149;27351;-70
2023/07/24 01:30:01;;;;;;;3.00;2.80;;;21.70;65.60;;;;;;932663;150;27343;-71
2023/07/24 01:32:27;;;;;;;2.83;2.50;;;21.70;65.80;;;;;;950020;147;27399;-71
2023/07/24 01:34:54;;;;;;;2.65;2.45;;;21.70;65.80;;;;;;950166;147;27400;-72
2023/07/24 01:37:20;;;;;;;3.10;2.90;;;21.70;65.90;;;;;;949854;147;27346;-71
2023/07/24 01:39:47;;;;;;;3.62;2.87;;;21.70;66.00;;;;;;934399;149;27767;-71
2023/07/24 01:42:14;;;;;;;3.45;3.10;;;21.70;66.20;;;;;;932812;149;27459;-71
2023/07/24 01:44:40;;;;;;;4.37;3.02;;;21.70;66.30;;;;;;934283;149;27436;-71
2023/07/24 01:47:07;;;;;;;3.02;2.77;;;21.60;66.30;;;;;;942820;148;27468;-71
2023/07/24 01:49:33;;;;;;;2.90;2.65;;;21.70;66.50;;;;;;932783;149;27893;-71
2023/07/24 01:52:00;;;;;;;3.10;2.80;;;21.60;66.30;;;;;;950648;147;27320;-71
2023/07/24 01:54:26;;;;;;;2.98;2.67;;;21.60;66.40;;;;;;950174;147;27414;-71
2023/07/24 01:56:53;;;;;;;3.25;2.95;;;21.60;66.40;;;;;;926105;150;27347;-71
2023/07/24 01:59:20;;;;;;;3.30;3.00;;;21.60;66.50;;;;;;941565;149;27352;-71
2023/07/24 02:01:46;;;;;;;3.45;2.72;;;21.60;66.70;;;;;;933102;150;27724;-71
2023/07/24 02:04:13;;;;;;;3.12;2.90;;;21.50;66.60;;;;;;950265;147;27436;-71
2023/07/24 02:06:39;;;;;;;3.35;2.75;;;21.50;66.70;;;;;;926498;150;27347;-71
2023/07/24 02:09:06;;;;;;;3.02;2.83;;;21.50;66.70;;;;;;941893;149;27443;-71
2023/07/24 02:11:33;;;;;;;3.27;2.98;;;21.50;66.80;;;;;;941923;149;27329;-71
2023/07/24 02:13:59;;;;;;;3.17;2.87;;;21.50;66.80;;;;;;948350;147;27338;-71
2023/07/24 02:16:26;;;;;;;2.98;2.77;;;21.50;66.90;;;;;;948947;146;27829;-72
2023/07/24 02:18:52;;;;;;;3.10;2.83;;;21.50;66.90;;;;;;932659;150;27335;-70
2023/07/24 02:21:19;;;;;;;3.50;3.20;;;21.40;66.90;;;;;;950258;147;27424;-72
2023/07/24 02:23:46;;;;;;;3.67;3.37;;;21.50;66.90;;;;;;950048;147;27331;-71
2023/07/24 02:26:12;;;;;;;3.15;2.85;;;21.40;67.00;;;;;;950106;147;27427;-71
2023/07/24 02:28:39;;;;;;;2.98;2.77;;;21.40;66.90;;;;;;949159;147;27320;-71
2023/07/24 02:31:05;;;;;;;3.83;3.02;;;21.40;67.00;;;;;;949881;147;27313;-71
2023/07/24 02:33:32;;;;;;;3.37;3.10;;;21.40;67.10;;;;;;948894;146;27315;-71
2023/07/24 02:35:58;;;;;;;3.15;2.95;;;21.30;67.30;;;;;;950210;147;27346;-71
2023/07/24 02:38:25;;;;;;;3.12;2.92;;;21.30;67.20;;;;;;949999;147;27455;-71
2023/07/24 02:40:52;;;;;;;2.90;2.70;;;21.30;67.20;;;;;;950143;147;27772;-71
2023/07/24 02:43:18;;;;;;;3.42;2.92;;;21.30;67.20;;;;;;949421;146;27412;-71
2023/07/24 02:45:45;;;;;;;3.08;2.77;;;21.30;67.20;;;;;;949433;146;27403;-73
2023/07/24 02:48:11;;;;;;;3.30;3.00;;;21.30;67.20;;;;;;944574;148;27399;-73
2023/07/24 02:50:38;;;;;;;3.37;3.05;;;21.30;67.30;;;;;;943995;149;27666;-73
2023/07/24 02:53:05;;;;;;;3.80;3.40;;;21.30;67.20;;;;;;962999;146;27310;-73
2023/07/24 02:55:31;;;;;;;3.52;3.22;;;21.30;67.20;;;;;;963077;146;27348;-73
2023/07/24 02:57:58;;;;;;;3.37;3.08;;;21.30;67.30;;;;;;945618;148;27720;-73
2023/07/24 03:00:24;;;;;;;3.65;3.17;;;21.30;67.20;;;;;;962438;146;27354;-73
2023/07/24 03:02:51;;;;;;;3.85;3.02;;;21.20;67.10;;;;;;963710;146;27314;-73
2023/07/24 03:05:18;;;;;;;3.58;3.25;;;21.20;67.00;;;;;;963462;145;27338;-73
2023/07/24 03:07:44;;;;;;;3.33;3.02;;;21.20;67.00;;;;;;963565;146;27417;-73
2023/07/24 03:10:11;;;;;;;3.72;3.42;;;21.10;66.80;;;;;;962715;146;27435;-73
2023/07/24 03:12:37;;;;;;;3.50;3.20;;;21.10;66.80;;;;;;962870;146;27292;-73
2023/07/24 03:15:04;;;;;;;3.80;3.33;;;21.00;66.90;;;;;;962959;146;27361;-73
2023/07/24 03:17:31;;;;;;;3.30;3.00;;;20.90;66.90;;;;;;946905;148;27359;-73
2023/07/24 03:19:57;;;;;;;3.55;3.25;;;20.90;67.00;;;;;;946058;148;27425;-73
2023/07/24 03:22:24;;;;;;;3.67;3.37;;;20.80;67.00;;;;;;962905;146;27913;-73
2023/07/24 03:24:50;;;;;;;3.72;3.42;;;20.70;67.10;;;;;;962848;146;27341;-73
2023/07/24 03:27:17;;;;;;;4.67;3.42;;;20.70;67.20;;;;;;962935;146;27405;-73
2023/07/24 03:29:43;;;;;;;3.37;3.17;;;20.60;67.20;;;;;;965512;145;27311;-73
2023/07/24 03:32:10;;;;;;;3.55;3.25;;;20.50;67.30;;;;;;945674;148;27503;-73
2023/07/24 03:34:37;;;;;;;3.72;3.30;;;20.50;67.70;;;;;;953612;147;27830;-73
2023/07/24 03:37:03;;;;;;;3.22;2.92;;;20.40;67.60;;;;;;946142;148;27315;-73
2023/07/24 03:39:30;;;;;;;3.40;3.10;;;20.30;67.70;;;;;;941551;149;27322;-73
2023/07/24 03:41:56;;;;;;;3.60;3.30;;;20.30;67.80;;;;;;961624;148;27341;-73
2023/07/24 03:44:23;;;;;;;3.83;3.47;;;20.30;68.00;;;;;;947978;148;27366;-73
2023/07/24 03:46:50;;;;;;;3.92;3.12;;;20.20;68.10;;;;;;941299;148;27438;-73
2023/07/24 03:49:16;;;;;;;4.60;3.67;;;20.10;68.20;;;;;;960390;148;27389;-73
2023/07/24 03:51:43;;;;;;;3.20;2.90;;;20.10;68.40;;;;;;967799;145;27322;-73
2023/07/24 03:54:10;;;;;;;3.45;3.15;;;20.10;68.60;;;;;;968008;145;27345;-73
2023/07/24 03:56:36;;;;;;;4.85;3.37;;;20.00;68.70;;;;;;969022;145;27325;-73
2023/07/24 03:59:03;;;;;;;3.65;3.35;;;20.00;68.80;;;;;;969239;145;27313;-73
2023/07/24 04:01:29;;;;;;;3.77;3.47;;;20.00;69.10;;;;;;966836;145;27325;-73
2023/07/24 04:03:56;;;;;;;3.37;3.05;;;20.00;69.20;;;;;;966327;145;27309;-73
2023/07/24 04:06:22;;;;;;;3.98;3.37;;;19.90;69.30;;;;;;967310;145;27433;-73
2023/07/24 04:08:49;;;;;;;3.52;3.22;;;19.90;69.50;;;;;;966277;145;27310;-73
2023/07/24 04:11:16;;;;;;;3.47;3.17;;;20.00;69.70;;;;;;966526;145;27298;-73
2023/07/24 04:13:42;;;;;;;3.67;3.25;;;20.00;69.90;;;;;;967147;145;27302;-73
2023/07/24 04:16:09;;;;;;;3.60;3.12;;;20.00;70.00;;;;;;966457;145;27345;-74
2023/07/24 04:18:35;;;;;;;3.95;3.10;;;20.10;70.00;;;;;;966020;145;27687;-73
2023/07/24 04:21:02;;;;;;;3.60;3.30;;;20.10;70.00;;;;;;966500;145;27436;-73
2023/07/24 04:23:28;;;;;;;4.70;4.20;;;20.20;70.00;;;;;;966969;145;27309;-73
2023/07/24 04:25:55;;;;;;;3.52;3.22;;;20.30;70.00;;;;;;966146;145;27314;-73
2023/07/24 04:28:22;;;;;;;4.08;3.02;;;20.40;70.00;;;;;;966714;145;27787;-73
2023/07/24 04:30:48;;;;;;;4.58;3.15;;;20.50;69.80;;;;;;966254;145;27306;-73
2023/07/24 04:33:15;;;;;;;4.00;3.67;;;20.60;69.70;;;;;;966791;145;27771;-74
2023/07/24 04:35:41;;;;;;;3.70;3.10;;;20.70;69.50;;;;;;966254;145;27455;-73
2023/07/24 04:38:08;;;;;;;3.33;3.02;;;20.70;69.30;;;;;;966423;145;27350;-73
2023/07/24 04:40:35;;;;;;;3.87;3.58;;;20.80;69.20;;;;;;967964;145;27463;-73
2023/07/24 04:43:01;;;;;;;3.85;3.40;;;20.90;69.00;;;;;;967831;145;27333;-74
2023/07/24 04:45:28;;;;;;;3.60;3.30;;;21.00;68.90;;;;;;968218;145;27326;-73
2023/07/24 04:47:54;;;;;;;4.17;3.77;;;21.10;68.80;;;;;;961140;145;27351;-73
2023/07/24 04:50:21;;;;;;;4.37;3.77;;;21.20;68.70;;;;;;947754;147;27323;-73
2023/07/24 04:52:48;;;;;;;4.05;3.65;;;21.30;68.70;;;;;;942140;149;27411;-73
2023/07/24 04:55:14;;;;;;;3.50;3.20;;;21.50;68.50;;;;;;942055;149;27321;-73
2023/07/24 04:57:41;;;;;;;3.33;3.12;;;21.60;68.40;;;;;;941931;149;27450;-73
2023/07/24 05:00:08;;;;;;;3.80;3.42;;;21.70;68.20;;;;;;941928;149;27479;-73
2023/07/24 05:02:34;;;;;;;4.60;3.92;;;21.90;68.00;;;;;;942731;149;27357;-73
2023/07/24 05:05:01;;;;;;;4.83;3.87;;;22.00;67.60;;;;;;941640;149;27427;-73
2023/07/24 05:07:27;;;;;;;5.60;3.70;;;22.10;67.30;;;;;;942364;149;27308;-73
2023/07/24 05:09:54;;;;;;;3.50;3.20;;;22.20;67.10;;;;;;933583;150;27455;-73
2023/07/24 05:12:20;;;;;;;4.10;3.52;;;22.30;66.80;;;;;;950863;147;27332;-73
2023/07/24 05:14:47;;;;;;;3.95;3.55;;;22.40;66.60;;;;;;932834;150;27444;-73
2023/07/24 05:17:14;;;;;;;3.92;3.62;;;22.50;67.20;;;;;;949710;147;27316;-73
2023/07/24 05:19:40;;;;;;;3.33;3.02;;;22.50;66.00;;;;;;950335;147;27305;-73
2023/07/24 05:22:07;;;;;;;4.03;3.40;;;22.60;65.90;;;;;;933067;150;27459;-74
2023/07/24 05:24:33;;;;;;;3.98;3.58;;;22.60;65.70;;;;;;949912;147;27426;-73
2023/07/24 05:27:00;;;;;;;3.70;3.40;;;22.70;65.50;;;;;;925750;150;27327;-73
2023/07/24 05:29:27;;;;;;;3.90;3.30;;;22.70;65.30;;;;;;942578;148;27345;-73
2023/07/24 05:31:53;;;;;;;3.75;3.42;;;22.70;65.30;;;;;;945405;149;27427;-74
2023/07/24 05:34:20;;;;;;;3.42;3.12;;;22.70;65.30;;;;;;944452;149;27399;-73
2023/07/24 05:36:46;;;;;;;3.62;3.33;;;22.80;65.30;;;;;;945488;149;27429;-73
2023/07/24 05:39:13;;;;;;;4.30;3.22;;;22.80;65.50;;;;;;944612;149;27424;-73
2023/07/24 05:41:40;;;;;;;3.70;3.02;;;22.90;65.60;;;;;;944709;149;27349;-73
2023/07/24 05:44:06;;;;;;;3.90;3.58;;;23.00;65.60;;;;;;945812;149;27477;-73
2023/07/24 05:46:33;;;;;;;3.90;3.55;;;23.10;65.70;;;;;;945396;149;27460;-73
2023/07/24 05:49:02;;;;;;;5.67;3.60;;;23.20;65.60;;;;;;944220;149;27409;-73
2023/07/24 05:51:26;;;;;;;3.85;3.45;;;23.40;65.50;;;;;;945752;148;27392;-74
2023/07/24 05:53:52;;;;;;;3.75;3.45;;;23.60;65.40;;;;;;947148;148;27281;-73
2023/07/24 05:56:19;;;;;;;3.80;3.50;;;23.70;65.10;;;;;;947422;150;27325;-73
2023/07/24 05:58:46;;;;;;;3.67;3.35;;;23.90;64.90;;;;;;947023;151;27325;-73
2023/07/24 06:01:12;;;;;;;3.83;3.52;;;24.10;64.60;;;;;;946471;148;27301;-73
2023/07/24 06:03:39;;;;;;;4.08;3.37;;;24.30;64.30;;;;;;947183;148;27256;-73
2023/07/24 06:06:05;;;;;;;5.90;3.72;;;24.50;64.10;;;;;;939897;152;27443;-73
2023/07/24 06:08:32;;;;;;;4.08;3.67;;;24.70;63.80;;;;;;939625;152;27365;-73
2023/07/24 06:10:59;;;;;;;4.83;4.03;;;24.90;63.30;;;;;;939278;151;27346;-73
2023/07/24 06:13:25;;;;;;;4.70;3.90;;;25.10;62.90;;;;;;939513;152;27432;-73
2023/07/24 06:15:52;;;;;;;3.92;3.50;;;25.20;62.20;;;;;;946776;148;27366;-73
2023/07/24 06:18:18;;;;;;;4.42;4.05;;;25.30;61.70;;;;;;946483;148;27328;-73
2023/07/24 06:20:45;;;;;;;3.98;3.62;;;25.40;61.20;;;;;;945923;148;27373;-73
2023/07/24 06:23:12;;;;;;;3.95;3.10;;;25.50;61.00;;;;;;946592;151;27421;-73
2023/07/24 06:25:38;;;;;;;4.12;3.72;;;25.50;61.70;;;;;;946228;151;27446;-73
2023/07/24 06:28:05;;;;;;;4.47;3.98;;;25.50;60.70;;;;;;946396;148;27329;-75
2023/07/24 06:30:31;;;;;;;4.20;3.50;;;25.50;60.40;;;;;;946831;148;27316;-73
2023/07/24 06:32:58;;;;;;;4.80;4.00;;;25.60;60.10;;;;;;947030;148;27304;-73
2023/07/24 06:35:24;;;;;;;4.12;3.72;;;25.60;60.10;;;;;;947345;148;27316;-73
2023/07/24 06:37:51;;;;;;;4.05;3.70;;;25.60;60.00;;;;;;946921;148;27293;-73
2023/07/24 06:40:18;;;;;;;3.95;3.50;;;25.60;60.00;;;;;;946891;148;27329;-73
2023/07/24 06:42:44;;;;;;;3.77;3.47;;;25.60;60.00;;;;;;946687;148;27422;-73
2023/07/24 06:45:11;;;;;;;4.12;3.72;;;25.70;60.10;;;;;;947041;148;27266;-73
2023/07/24 06:47:37;;;;;;;6.33;3.35;;;25.70;60.10;;;;;;947121;148;27293;-73
2023/07/24 06:50:04;;;;;;;4.53;3.77;;;25.80;60.20;;;;;;956998;146;27522;-73
2023/07/24 06:52:31;;;;;;;4.03;3.70;;;25.90;60.30;;;;;;963483;146;27440;-73
2023/07/24 06:54:58;;;;;;;4.55;4.15;;;26.00;60.30;;;;;;962844;146;27300;-73
2023/07/24 06:57:24;;;;;;;4.58;4.17;;;26.20;60.40;;;;;;963137;146;27392;-73
2023/07/24 06:59:50;;;;;;;4.30;3.90;;;26.40;60.30;;;;;;963385;146;27424;-73
2023/07/24 07:02:17;;;;;;;4.92;3.98;;;26.60;60.30;;;;;;962792;146;27318;-73
2023/07/24 07:04:44;;;;;;;4.10;3.70;;;26.90;60.00;;;;;;962888;146;27359;-73
2023/07/24 07:07:10;;;;;;;4.70;4.08;;;27.10;59.80;;;;;;963005;146;27312;-73
2023/07/24 07:09:37;;;;;;;4.28;3.87;;;27.30;59.30;;;;;;962979;146;27335;-73
2023/07/24 07:12:03;;;;;;;4.10;3.72;;;27.60;59.00;;;;;;963240;146;27374;-73
2023/07/24 07:14:30;;;;;;;5.65;4.55;;;27.80;58.60;;;;;;963030;146;27339;-73
2023/07/24 07:16:56;;;;;;;5.97;3.40;;;28.10;59.00;;;;;;962589;146;27385;-73
2023/07/24 07:19:23;;;;;;;4.60;3.50;;;28.50;59.50;;;;;;963969;146;27331;-73
2023/07/24 07:21:50;;;;;;;3.87;3.47;;;29.10;59.90;;;;;;962175;146;27316;-73
2023/07/24 07:24:16;;;;;;;4.12;3.60;;;29.80;60.10;;;;;;963452;146;27443;-73
2023/07/24 07:26:44;;;;;;;4.10;3.72;;;30.70;59.80;;;;;;962856;146;27305;-73
2023/07/24 07:29:09;;;;;;;4.12;3.67;;;31.60;58.40;;;;;;961273;146;27395;-73
2023/07/24 07:31:36;;;;;;;3.42;3.12;;;32.40;56.90;;;;;;942842;149;26234;-74
2023/07/24 07:34:03;;;;;;;3.60;3.30;;;33.00;55.30;;;;;;963191;146;27372;-74
2023/07/24 07:36:29;;;;;;;3.85;3.55;;;33.60;54.20;;;;;;962886;146;26630;-74
2023/07/24 07:38:56;;;;;;;4.50;3.20;;;34.20;53.80;;;;;;946699;148;26236;-74
2023/07/24 07:41:22;;;;;;;4.20;3.25;;;34.90;53.60;;;;;;945894;148;26349;-74
2023/07/24 07:43:49;;;;;;;3.72;3.17;;;35.60;52.50;;;;;;962956;146;26244;-74
2023/07/24 07:46:16;;;;;;;3.83;3.33;;;36.30;51.80;;;;;;962724;146;27352;-74
2023/07/24 07:48:42;;;;;;;4.00;3.27;;;37.10;51.30;;;;;;966037;145;26223;-74
2023/07/24 07:51:09;;;;;;;3.90;3.42;;;37.90;50.30;;;;;;949461;148;26368;-74
2023/07/24 07:53:35;;;;;;;3.58;3.27;;;38.60;49.30;;;;;;967877;145;26238;-74
2023/07/24 07:56:02;;;;;;;3.90;3.60;;;39.30;48.10;;;;;;958640;147;26412;-74
2023/07/24 07:58:29;;;;;;;3.67;3.37;;;39.90;46.60;;;;;;944362;147;26261;-74
2023/07/24 08:00:55;;;;;;;4.03;3.67;;;40.40;45.60;;;;;;967802;145;26227;-74
2023/07/24 08:03:22;;;;;;;4.17;3.77;;;40.80;45.00;;;;;;967696;145;26235;-74
2023/07/24 08:05:48;;;;;;;3.92;3.62;;;41.20;44.20;;;;;;967462;145;26261;-74
2023/07/24 08:08:15;;;;;;;5.45;3.98;;;41.60;43.50;;;;;;949449;148;26361;-74
2023/07/24 08:10:42;;;;;;;3.75;3.40;;;41.90;42.40;;;;;;966830;145;26235;-74
2023/07/24 08:13:08;;;;;;;4.22;3.83;;;42.10;41.40;;;;;;967082;145;26256;-74
2023/07/24 08:15:35;;;;;;;4.17;3.80;;;42.20;40.50;;;;;;966820;145;26318;-74
2023/07/24 08:18:01;;;;;;;4.87;3.70;;;42.10;40.10;;;;;;967230;145;26255;-74
2023/07/24 08:20:28;;;;;;;4.22;3.87;;;42.00;39.40;;;;;;950660;147;26315;-74
2023/07/24 08:22:55;;;;;;;3.67;3.45;;;41.70;39.00;;;;;;951520;148;26254;-74
2023/07/24 08:25:21;;;;;;;3.87;3.52;;;41.50;38.80;;;;;;952195;148;26243;-74
2023/07/24 08:27:48;;;;;;;4.00;3.60;;;41.10;38.70;;;;;;947416;148;26267;-74
2023/07/24 08:30:14;;;;;;;4.25;3.92;;;40.70;38.50;;;;;;966913;145;26247;-74
2023/07/24 08:32:41;;;;;;;4.40;4.00;;;40.30;38.40;;;;;;957888;147;26235;-74
2023/07/24 08:35:07;;;;;;;3.85;3.55;;;39.80;38.30;;;;;;962758;148;26368;-74
2023/07/24 08:37:34;;;;;;;4.83;3.52;;;39.40;38.40;;;;;;963682;148;26315;-74
2023/07/24 08:40:01;;;;;;;4.70;3.60;;;38.90;38.60;;;;;;963189;146;26336;-74
2023/07/24 08:42:27;;;;;;;4.55;3.95;;;38.40;38.70;;;;;;964237;148;26228;-74
2023/07/24 08:44:54;;;;;;;4.22;3.83;;;38.00;39.00;;;;;;963068;148;26311;-74
2023/07/24 08:47:20;;;;;;;5.22;4.25;;;37.50;39.20;;;;;;962167;146;26339;-74
2023/07/24 08:49:47;;;;;;;8.50;4.03;;;37.10;39.40;;;;;;962833;146;26246;-74
2023/07/24 08:52:14;;;;;;;4.80;4.30;;;36.70;39.60;;;;;;951936;147;27392;-74
2023/07/24 08:54:40;;;;;;;4.70;4.30;;;36.40;40.00;;;;;;951719;147;27313;-74
2023/07/24 08:57:07;;;;;;;5.62;4.58;;;36.00;40.30;;;;;;951864;147;27434;-74
2023/07/24 08:59:33;;;;;;;3.92;3.62;;;35.70;40.40;;;;;;951835;147;27388;-74
2023/07/24 09:02:00;;;;;;;3.98;3.65;;;35.40;40.50;;;;;;951445;148;27362;-74
2023/07/24 09:04:27;;;;;;;4.20;3.75;;;35.10;40.70;;;;;;952554;148;27394;-74
2023/07/24 09:06:53;;;;;;;4.12;3.72;;;34.80;40.70;;;;;;951920;149;27648;-74
2023/07/24 09:09:20;;;;;;;4.15;3.75;;;34.50;41.00;;;;;;952246;147;27315;-74
2023/07/24 09:11:49;;;;;;;4.05;3.65;;;34.20;41.20;;;;;;952249;148;27356;-74
2023/07/24 09:14:25;;;;;;;4.42;3.95;;;34.00;41.50;;;;;;951726;148;27375;-74
2023/07/24 09:17:06;;;;;;;4.37;3.98;;;33.70;41.80;;;;;;951957;149;27338;-74
2023/07/24 09:19:33;;;;;;;4.30;3.90;;;33.40;42.80;;;;;;949312;147;27415;-74
2023/07/24 09:22:09;;;;;;;4.05;3.75;;;33.20;42.50;;;;;;951414;147;27418;-74
2023/07/24 09:24:35;;;;;;;4.20;3.83;;;33.10;42.80;;;;;;950486;147;27392;-74
2023/07/24 09:27:02;;;;;;;3.75;3.45;;;33.00;43.10;;;;;;952049;147;27404;-74
2023/07/24 09:29:32;;;;;;;4.22;3.92;;;33.00;43.30;;;;;;951652;147;27333;-74
2023/07/24 09:31:58;;;;;;;4.35;3.85;;;33.10;43.70;;;;;;952432;147;27422;-74
2023/07/24 09:34:25;;;;;;;4.28;3.85;;;33.30;44.20;;;;;;952471;148;27481;-74
2023/07/24 09:36:51;;;;;;;4.12;3.72;;;33.60;44.70;;;;;;952676;149;26260;-74
2023/07/24 09:39:27;;;;;;;4.42;4.03;;;34.10;44.40;;;;;;952056;149;27414;-74
2023/07/24 09:41:54;;;;;;;3.83;3.52;;;34.50;43.80;;;;;;951441;147;27333;-74
2023/07/24 09:44:20;;;;;;;4.50;4.10;;;34.70;43.00;;;;;;952284;147;27360;-74
2023/07/24 09:46:47;;;;;;;4.25;3.85;;;34.80;42.30;;;;;;952095;148;27457;-74
2023/07/24 09:49:13;;;;;;;4.30;3.90;;;34.80;42.00;;;;;;951236;147;27273;-74
2023/07/24 09:51:40;;;;;;;5.58;4.08;;;34.60;41.70;;;;;;953853;146;27373;-74
2023/07/24 09:54:24;;;;;;;4.95;3.80;;;34.30;41.60;;;;;;956797;147;27324;-74
2023/07/24 09:56:51;;;;;;;4.20;3.80;;;34.00;41.70;;;;;;956427;147;27440;-74
2023/07/24 09:59:18;;;;;;;4.45;4.05;;;33.70;41.90;;;;;;957048;147;27453;-74
2023/07/24 10:01:44;;;;;;;4.47;4.08;;;33.30;42.10;;;;;;956875;147;27295;-74
2023/07/24 10:04:11;;;;;;;4.95;4.45;;;32.90;42.50;;;;;;956266;147;27291;-74
2023/07/24 10:06:37;;;;;;;4.65;4.15;;;32.50;42.90;;;;;;957426;147;27344;-74
2023/07/24 10:09:04;;;;;;;4.35;3.95;;;32.20;43.30;;;;;;957523;147;27444;-73
2023/07/24 10:11:30;;;;;;;4.50;4.10;;;32.00;43.90;;;;;;957008;146;27318;-74
2023/07/24 10:13:57;;;;;;;4.10;3.33;;;31.70;44.30;;;;;;956740;147;27827;-74
2023/07/24 10:16:24;;;;;;;6.45;4.55;;;31.70;44.80;;;;;;957161;146;27381;-73
2023/07/24 10:18:50;;;;;;;4.80;4.40;;;31.60;45.10;;;;;;957011;147;27348;-73
2023/07/24 10:21:17;;;;;;;6.37;4.35;;;31.60;45.30;;;;;;957401;147;27340;-74
2023/07/24 10:23:43;;;;;;;4.35;3.95;;;31.50;45.30;;;;;;956757;146;27734;-74
2023/07/24 10:26:10;;;;;;;5.10;4.33;;;31.50;45.30;;;;;;956759;147;27320;-73
2023/07/24 10:28:39;;;;;;;4.65;4.05;;;31.40;45.30;;;;;;957455;146;27313;-74
2023/07/24 10:31:21;;;;;;;5.83;4.20;;;31.40;45.30;;;;;;956638;146;27315;-77
2023/07/24 10:33:47;;;;;;;4.40;4.00;;;31.20;45.40;;;;;;956075;146;27474;-77
2023/07/24 10:36:14;;;;;;;4.20;3.83;;;31.10;45.70;;;;;;956773;146;27383;-77
2023/07/24 10:38:40;;;;;;;4.60;4.20;;;31.00;46.00;;;;;;956937;146;27331;-77
2023/07/24 10:41:07;;;;;;;4.22;3.77;;;30.90;46.10;;;;;;956487;146;27305;-77
2023/07/24 10:43:43;;;;;;;4.60;4.20;;;30.80;46.30;;;;;;956845;146;27316;-77
2023/07/24 10:46:09;;;;;;;5.72;3.90;;;30.80;46.40;;;;;;957259;147;27390;-77
2023/07/24 10:48:36;;;;;;;4.22;3.92;;;30.80;46.40;;;;;;957168;146;27352;-77
2023/07/24 10:51:11;;;;;;;4.50;4.10;;;30.80;46.70;;;;;;956384;146;27436;-77
2023/07/24 10:53:37;;;;;;;4.58;4.17;;;30.70;46.60;;;;;;957874;146;27336;-77
2023/07/24 10:56:04;;;;;;;4.90;4.37;;;30.70;46.70;;;;;;957540;146;27409;-77
2023/07/24 10:58:31;;;;;;;4.22;3.83;;;30.70;46.90;;;;;;957043;147;27443;-77
2023/07/24 11:00:58;;;;;;;4.40;3.95;;;30.60;46.90;;;;;;957199;146;27312;-77
2023/07/24 11:03:24;;;;;;;4.08;3.52;;;30.60;47.10;;;;;;957460;147;27316;-77
2023/07/24 11:05:50;;;;;;;4.55;4.03;;;30.60;47.40;;;;;;957521;147;27347;-77
2023/07/24 11:08:17;;;;;;;4.45;3.75;;;30.60;47.60;;;;;;957561;146;27360;-77
2023/07/24 11:10:49;;;;;;;5.28;4.67;;;30.70;47.90;;;;;;956980;146;27313;-77
2023/07/24 11:13:13;;;;;;;4.37;3.98;;;30.80;47.90;;;;;;956379;147;27340;-77
2023/07/24 11:15:39;;;;;;;4.28;3.87;;;30.90;47.90;;;;;;957885;147;27725;-77
2023/07/24 11:18:09;;;;;;;3.77;3.47;;;31.10;47.90;;;;;;957614;147;27432;-77
2023/07/24 11:20:33;;;;;;;4.28;3.72;;;31.20;47.90;;;;;;956338;146;27349;-77
2023/07/24 11:22:59;;;;;;;4.53;4.12;;;31.40;47.60;;;;;;957231;147;27837;-77
2023/07/24 11:25:26;;;;;;;4.35;3.95;;;31.60;47.50;;;;;;957688;146;27320;-77
2023/07/24 11:27:52;;;;;;;4.20;3.75;;;31.70;47.20;;;;;;957339;146;27360;-78
2023/07/24 11:30:23;;;;;;;4.08;3.70;;;31.90;46.90;;;;;;957586;146;27324;-77
2023/07/24 11:32:49;;;;;;;4.70;4.15;;;32.00;46.50;;;;;;957054;147;27312;-77
2023/07/24 11:35:15;;;;;;;3.85;3.55;;;32.20;46.40;;;;;;957264;146;27340;-77
2023/07/24 11:37:42;;;;;;;4.35;4.05;;;32.30;46.00;;;;;;956808;147;27433;-78
2023/07/24 11:40:10;;;;;;;5.42;4.10;;;32.40;45.80;;;;;;957261;146;27340;-77
2023/07/24 11:42:39;;;;;;;5.37;3.83;;;32.50;45.50;;;;;;956872;147;27307;-77
2023/07/24 11:45:05;;;;;;;4.72;4.33;;;32.50;45.30;;;;;;957102;147;27306;-77
2023/07/24 11:47:31;;;;;;;3.85;3.55;;;32.50;45.30;;;;;;956259;147;27406;-77
2023/07/24 11:49:58;;;;;;;4.28;3.72;;;32.40;45.30;;;;;;957249;146;27364;-77
2023/07/24 11:52:25;;;;;;;5.15;4.60;;;32.30;45.60;;;;;;955745;147;27387;-77
2023/07/24 11:55:00;;;;;;;4.65;4.20;;;32.30;45.70;;;;;;950671;147;27303;-77
2023/07/24 11:57:24;;;;;;;4.10;3.80;;;32.20;45.80;;;;;;951251;147;27430;-78
2023/07/24 11:59:50;;;;;;;4.30;3.90;;;32.20;45.80;;;;;;952049;148;27432;-77
2023/07/24 12:02:17;;;;;;;5.20;3.92;;;32.20;46.00;;;;;;951316;147;27418;-77
2023/07/24 12:04:43;;;;;;;4.22;3.92;;;32.20;46.10;;;;;;952003;147;27304;-78
2023/07/24 12:07:10;;;;;;;4.60;4.20;;;32.30;46.10;;;;;;952004;148;27318;-77
2023/07/24 12:09:37;;;;;;;3.90;3.50;;;32.30;46.60;;;;;;952566;148;27321;-77
2023/07/24 12:12:06;;;;;;;4.25;3.70;;;32.30;45.80;;;;;;951735;149;27348;-77
2023/07/24 12:14:33;;;;;;;4.55;3.90;;;32.40;45.90;;;;;;951294;147;27386;-77
2023/07/24 12:17:02;;;;;;;4.12;3.83;;;32.40;45.60;;;;;;952425;148;27411;-77
2023/07/24 12:19:28;;;;;;;4.35;3.87;;;32.30;45.60;;;;;;952500;148;27434;-78
2023/07/24 12:21:55;;;;;;;4.08;3.67;;;32.30;45.70;;;;;;950845;147;27415;-77
2023/07/24 12:24:22;;;;;;;6.72;3.87;;;32.20;45.50;;;;;;952034;148;27309;-78
2023/07/24 12:26:48;;;;;;;4.10;3.80;;;32.20;45.70;;;;;;952149;147;27308;-77
2023/07/24 12:29:15;;;;;;;5.20;4.00;;;32.20;45.90;;;;;;952502;147;27314;-77
2023/07/24 12:31:42;;;;;;;5.00;3.58;;;32.20;46.00;;;;;;952275;148;27392;-78
2023/07/24 12:34:08;;;;;;;4.35;3.50;;;32.20;46.00;;;;;;952679;148;27435;-77
2023/07/24 12:36:35;;;;;;;4.25;3.83;;;32.30;45.90;;;;;;952029;148;27280;-76
2023/07/24 12:39:01;;;;;;;5.62;3.77;;;32.30;45.60;;;;;;951898;147;27318;-75
2023/07/24 12:41:28;;;;;;;4.60;3.67;;;32.30;45.40;;;;;;951917;147;27369;-75
2023/07/24 12:43:54;;;;;;;3.92;3.27;;;32.30;45.30;;;;;;952013;148;27434;-75
2023/07/24 12:46:21;;;;;;;3.60;3.30;;;32.20;45.20;;;;;;952595;147;27313;-76